Time,TemperatureF,DewpointF,PressureIn,WindDirection,WindDirectionDegrees,WindSpeedMPH,WindSpeedGustMPH,Humidity,HourlyPrecipIn,Conditions,Clouds,dailyrainin,SoftwareType,DateUTC
2013-05-11 00:01:00,48.5,44.5,29.95,NW,320,3.0,7.0,86,0.00,,OVC100,0.00,VWS V13.01,2013-05-11 04:01:00,
2013-05-11 00:06:00,48.3,44.0,29.95,NW,315,6.0,9.0,85,0.00,,OVC100,0.00,VWS V13.01,2013-05-11 04:06:00,
2013-05-11 00:11:00,48.2,43.9,29.95,NNW,329,6.0,13.0,85,0.00,,OVC100,0.00,VWS V13.01,2013-05-11 04:11:00,
2013-05-11 00:16:00,48.2,43.9,29.95,NNW,327,1.0,13.0,85,0.00,,OVC100,0.00,VWS V13.01,2013-05-11 04:16:00,
2013-05-11 00:21:00,48.2,44.2,29.95,NW,312,6.0,13.0,86,0.00,,OVC100,0.00,VWS V13.01,2013-05-11 04:21:00,
2013-05-11 00:26:00,48.1,44.1,29.95,NW,315,3.0,13.0,86,0.00,,OVC100,0.00,VWS V13.01,2013-05-11 04:26:00,
2013-05-11 00:31:00,48.1,44.1,29.95,NW,310,4.0,5.0,86,0.00,,OVC100,0.00,VWS V13.01,2013-05-11 04:31:00,
2013-05-11 00:36:00,48.1,44.1,29.95,NW,313,3.0,9.0,86,0.00,,OVC100,0.00,VWS V13.01,2013-05-11 04:36:00,
2013-05-11 00:41:00,48.1,44.1,29.96,NW,311,4.0,9.0,86,0.00,,OVC100,0.00,VWS V13.01,2013-05-11 04:41:00,
2013-05-11 00:46:00,48.1,44.1,29.96,NW,312,4.0,9.0,86,0.00,,OVC100,0.00,VWS V13.01,2013-05-11 04:46:00,
2013-05-11 00:51:00,48.0,44.0,29.96,NW,304,5.0,9.0,86,0.00,,OVC100,0.00,VWS V13.01,2013-05-11 04:51:00,
2013-05-11 00:56:00,48.0,44.0,29.96,NW,321,4.0,11.0,86,0.00,,OVC100,0.00,VWS V13.01,2013-05-11 04:56:00,
2013-05-11 01:01:00,47.9,43.9,29.96,NW,325,1.0,6.0,86,0.00,,OVC100,0.00,VWS V13.01,2013-05-11 05:01:00,
2013-05-11 01:06:00,47.9,43.9,29.96,NW,313,5.0,8.0,86,0.00,,OVC100,0.00,VWS V13.01,2013-05-11 05:06:00,
2013-05-11 01:11:00,47.9,43.9,29.96,NW,308,4.0,8.0,86,0.00,,OVC100,0.00,VWS V13.01,2013-05-11 05:11:00,
2013-05-11 01:16:00,47.9,43.9,29.96,NW,309,5.0,8.0,86,0.00,,OVC100,0.00,VWS V13.01,2013-05-11 05:16:00,
2013-05-11 01:21:00,47.8,43.8,29.96,NW,306,7.0,10.0,86,0.00,,OVC100,0.00,VWS V13.01,2013-05-11 05:21:00,
2013-05-11 01:26:00,47.8,44.1,29.96,NW,314,4.0,10.0,87,0.00,,OVC100,0.00,VWS V13.01,2013-05-11 05:26:00,
2013-05-11 01:31:00,47.6,43.9,29.96,NW,309,2.0,6.0,87,0.00,,OVC100,0.00,VWS V13.01,2013-05-11 05:31:00,
2013-05-11 01:36:00,47.5,43.8,29.96,NW,310,5.0,10.0,87,0.00,,OVC100,0.00,VWS V13.01,2013-05-11 05:36:00,
2013-05-11 01:41:00,47.5,43.8,29.96,WNW,300,7.0,10.0,87,0.00,,OVC100,0.00,VWS V13.01,2013-05-11 05:41:00,
2013-05-11 01:46:00,47.4,43.7,29.97,WNW,301,3.0,10.0,87,0.00,,OVC100,0.00,VWS V13.01,2013-05-11 05:46:00,
2013-05-11 01:51:00,47.3,43.6,29.97,WNW,300,6.0,10.0,87,0.00,,OVC100,0.00,VWS V13.01,2013-05-11 05:51:00,
2013-05-11 01:56:00,47.3,43.3,29.97,WNW,300,10.0,11.0,86,0.00,,OVC100,0.00,VWS V13.01,2013-05-11 05:56:00,
2013-05-11 02:01:00,47.2,43.2,29.97,NW,304,7.0,7.0,86,0.00,,OVC100,0.00,VWS V13.01,2013-05-11 06:01:00,
2013-05-11 02:06:00,47.2,43.2,29.97,NW,308,5.0,10.0,86,0.00,,OVC100,0.00,VWS V13.01,2013-05-11 06:06:00,
2013-05-11 02:11:00,47.1,43.4,29.97,NW,319,4.0,10.0,87,0.00,,OVC100,0.00,VWS V13.01,2013-05-11 06:11:00,
2013-05-11 02:16:00,47.1,43.1,29.97,NW,319,4.0,10.0,86,0.00,,OVC100,0.00,VWS V13.01,2013-05-11 06:16:00,
2013-05-11 02:21:00,47.1,43.4,29.97,NNW,331,5.0,10.0,87,0.00,,OVC100,0.00,VWS V13.01,2013-05-11 06:21:00,
2013-05-11 02:26:00,47.1,43.4,29.97,WNW,298,10.0,10.0,87,0.00,,OVC100,0.00,VWS V13.01,2013-05-11 06:26:00,
2013-05-11 02:31:00,47.0,43.3,29.97,WNW,295,7.0,7.0,87,0.00,,OVC100,0.00,VWS V13.01,2013-05-11 06:31:00,
2013-05-11 02:36:00,47.0,43.3,29.97,WNW,300,6.0,7.0,87,0.00,,OVC100,0.00,VWS V13.01,2013-05-11 06:36:00,
2013-05-11 02:41:00,47.0,43.3,29.97,NW,304,7.0,10.0,87,0.00,,OVC100,0.00,VWS V13.01,2013-05-11 06:41:00,
2013-05-11 02:46:00,46.9,43.2,29.97,WNW,294,5.0,10.0,87,0.00,,OVC100,0.00,VWS V13.01,2013-05-11 06:46:00,
2013-05-11 02:51:00,46.7,43.3,29.96,WNW,298,10.0,11.0,88,0.00,,OVC100,0.00,VWS V13.01,2013-05-11 06:51:00,
2013-05-11 02:56:00,46.5,43.1,29.96,NW,304,7.0,13.0,88,0.00,,OVC100,0.00,VWS V13.01,2013-05-11 06:56:00,
2013-05-11 03:01:00,46.5,43.1,29.97,WNW,300,4.0,6.0,88,0.00,,OVC100,0.00,VWS V13.01,2013-05-11 07:01:00,
2013-05-11 03:06:00,46.4,43.0,29.97,WNW,297,5.0,11.0,88,0.00,,OVC100,0.00,VWS V13.01,2013-05-11 07:06:00,
2013-05-11 03:11:00,46.3,43.0,29.97,WNW,302,10.0,14.0,88,0.00,,OVC100,0.00,VWS V13.01,2013-05-11 07:11:00,
2013-05-11 03:16:00,46.2,42.8,29.97,WNW,294,6.0,14.0,88,0.00,,OVC100,0.00,VWS V13.01,2013-05-11 07:16:00,
2013-05-11 03:21:00,46.1,43.0,29.97,NW,309,5.0,14.0,89,0.00,,OVC100,0.00,VWS V13.01,2013-05-11 07:21:00,
2013-05-11 03:26:00,46.0,43.0,29.97,WNW,300,11.0,14.0,89,0.00,,OVC100,0.00,VWS V13.01,2013-05-11 07:26:00,
2013-05-11 03:31:00,45.9,42.8,29.97,NW,306,9.0,11.0,89,0.00,,OVC100,0.00,VWS V13.01,2013-05-11 07:31:00,
2013-05-11 03:36:00,45.7,42.7,29.97,NW,306,11.0,14.0,89,0.00,,OVC100,0.00,VWS V13.01,2013-05-11 07:36:00,
2013-05-11 03:41:00,45.7,42.7,29.97,WNW,300,9.0,14.0,89,0.00,,OVC100,0.00,VWS V13.01,2013-05-11 07:41:00,
2013-05-11 03:46:00,45.8,42.8,29.97,WNW,298,9.0,15.0,89,0.00,,OVC100,0.00,VWS V13.01,2013-05-11 07:46:00,
2013-05-11 03:51:00,45.8,42.5,29.97,NW,304,6.0,15.0,88,0.00,,OVC100,0.00,VWS V13.01,2013-05-11 07:51:00,
2013-05-11 03:56:00,45.8,42.8,29.97,NW,310,5.0,15.0,89,0.00,,OVC100,0.00,VWS V13.01,2013-05-11 07:56:00,
2013-05-11 04:00:00,45.8,42.8,29.97,NW,307,5.0,10.0,89,0.00,,OVC100,0.00,VWS V13.01,2013-05-11 08:00:00,
2013-05-11 04:05:00,45.7,42.4,29.97,WNW,301,7.0,11.0,88,0.00,,OVC100,0.00,VWS V13.01,2013-05-11 08:05:00,
2013-05-11 04:10:00,45.8,42.8,29.97,NW,306,5.0,11.0,89,0.00,,OVC100,0.00,VWS V13.01,2013-05-11 08:10:00,
2013-05-11 04:15:00,45.8,42.8,29.97,WNW,294,4.0,11.0,89,0.00,,OVC100,0.00,VWS V13.01,2013-05-11 08:15:00,
2013-05-11 04:20:00,45.8,42.8,29.97,WNW,303,7.0,11.0,89,0.00,,OVC100,0.00,VWS V13.01,2013-05-11 08:20:00,
2013-05-11 04:25:00,45.7,42.7,29.97,WNW,300,14.0,16.0,89,0.00,,OVC100,0.00,VWS V13.01,2013-05-11 08:25:00,
2013-05-11 04:30:00,45.5,42.2,29.97,NW,304,8.0,10.0,88,0.00,,OVC100,0.00,VWS V13.01,2013-05-11 08:30:00,
2013-05-11 04:35:00,45.5,42.2,29.97,NW,309,9.0,11.0,88,0.00,,OVC100,0.00,VWS V13.01,2013-05-11 08:35:00,
2013-05-11 04:40:00,45.5,42.5,29.97,WNW,294,9.0,11.0,89,0.00,,OVC100,0.00,VWS V13.01,2013-05-11 08:40:00,
2013-05-11 04:45:00,45.5,42.5,29.97,WNW,298,10.0,14.0,89,0.00,,OVC100,0.00,VWS V13.01,2013-05-11 08:45:00,
2013-05-11 04:50:00,45.4,42.3,29.97,WNW,300,5.0,16.0,89,0.00,,OVC100,0.00,VWS V13.01,2013-05-11 08:50:00,
2013-05-11 04:55:00,45.4,42.3,29.97,WNW,302,6.0,16.0,89,0.00,,OVC100,0.00,VWS V13.01,2013-05-11 08:55:00,
2013-05-11 05:00:00,45.4,42.6,29.97,WNW,292,5.0,5.0,90,0.00,,OVC100,0.00,VWS V13.01,2013-05-11 09:00:00,
2013-05-11 05:05:00,45.2,42.5,29.97,NW,311,5.0,9.0,90,0.00,,OVC100,0.00,VWS V13.01,2013-05-11 09:05:00,
2013-05-11 05:10:00,45.1,42.3,29.97,NW,310,5.0,12.0,90,0.00,,OVC100,0.00,VWS V13.01,2013-05-11 09:10:00,
2013-05-11 05:15:00,45.1,42.3,29.97,NW,308,3.0,12.0,90,0.00,,OVC100,0.00,VWS V13.01,2013-05-11 09:15:00,
2013-05-11 05:20:00,45.0,42.2,29.97,NW,307,5.0,12.0,90,0.00,,OVC100,0.00,VWS V13.01,2013-05-11 09:20:00,
2013-05-11 05:25:00,45.1,42.3,29.97,WNW,297,8.0,12.0,90,0.00,,OVC100,0.00,VWS V13.01,2013-05-11 09:25:00,
2013-05-11 05:30:00,45.0,42.2,29.97,NW,323,3.0,7.0,90,0.00,,OVC100,0.00,VWS V13.01,2013-05-11 09:30:00,
2013-05-11 05:35:00,45.1,42.6,29.97,NW,311,5.0,7.0,91,0.00,,OVC100,0.00,VWS V13.01,2013-05-11 09:35:00,
2013-05-11 05:40:00,45.2,42.7,29.97,NW,315,7.0,9.0,91,0.00,,OVC100,0.00,VWS V13.01,2013-05-11 09:40:00,
2013-05-11 05:45:00,45.2,42.7,29.97,NW,317,9.0,10.0,91,0.00,,OVC100,0.00,VWS V13.01,2013-05-11 09:45:00,
2013-05-11 05:50:00,45.0,42.2,29.97,NW,323,1.0,10.0,90,0.00,,OVC100,0.00,VWS V13.01,2013-05-11 09:50:00,
2013-05-11 05:55:00,45.0,42.2,29.97,NW,319,5.0,10.0,90,0.00,,OVC100,0.00,VWS V13.01,2013-05-11 09:55:00,
2013-05-11 06:00:00,45.1,42.6,29.97,NW,316,2.0,4.0,91,0.00,,OVC100,0.00,VWS V13.01,2013-05-11 10:00:00,
2013-05-11 06:05:00,45.2,42.7,29.97,NW,316,2.0,5.0,91,0.00,,OVC100,0.00,VWS V13.01,2013-05-11 10:05:00,
2013-05-11 06:10:00,45.2,42.7,29.97,NW,313,6.0,6.0,91,0.00,,OVC100,0.00,VWS V13.01,2013-05-11 10:10:00,
2013-05-11 06:15:00,45.2,42.7,29.97,NW,307,6.0,7.0,91,0.00,,OVC100,0.00,VWS V13.01,2013-05-11 10:15:00,
2013-05-11 06:20:00,45.2,42.7,29.97,NW,321,2.0,7.0,91,0.00,,OVC100,0.00,VWS V13.01,2013-05-11 10:20:00,
2013-05-11 06:25:00,45.2,42.7,29.97,NNW,329,9.0,10.0,91,0.00,,OVC100,0.00,VWS V13.01,2013-05-11 10:25:00,
2013-05-11 06:30:00,45.2,42.7,29.97,NNW,336,5.0,6.0,91,0.00,,OVC100,0.00,VWS V13.01,2013-05-11 10:30:00,
2013-05-11 06:35:00,45.0,42.5,29.97,NW,320,4.0,13.0,91,0.00,,OVC100,0.00,VWS V13.01,2013-05-11 10:35:00,
2013-05-11 06:40:00,45.0,42.5,29.97,NW,315,8.0,13.0,91,0.00,,OVC100,0.00,VWS V13.01,2013-05-11 10:40:00,
2013-05-11 06:45:00,45.0,42.5,29.97,NW,312,3.0,13.0,91,0.00,,OVC100,0.00,VWS V13.01,2013-05-11 10:45:00,
2013-05-11 06:50:00,45.0,42.5,29.97,NW,325,5.0,13.0,91,0.00,,OVC100,0.00,VWS V13.01,2013-05-11 10:50:00,
2013-05-11 06:55:00,45.0,42.5,29.97,NW,321,2.0,13.0,91,0.00,,OVC100,0.00,VWS V13.01,2013-05-11 10:55:00,
2013-05-11 07:00:00,45.0,42.5,29.98,NW,321,1.0,3.0,91,0.00,,OVC100,0.00,VWS V13.01,2013-05-11 11:00:00,
2013-05-11 07:05:00,45.0,42.5,29.98,NW,319,2.0,10.0,91,0.00,,OVC100,0.00,VWS V13.01,2013-05-11 11:05:00,
2013-05-11 07:10:00,45.0,42.5,29.98,NW,319,8.0,10.0,91,0.00,,OVC100,0.00,VWS V13.01,2013-05-11 11:10:00,
2013-05-11 07:15:00,45.0,42.5,29.98,NW,311,4.0,10.0,91,0.00,,OVC100,0.00,VWS V13.01,2013-05-11 11:15:00,
2013-05-11 07:20:00,45.0,42.5,29.98,NW,313,3.0,10.0,91,0.00,,OVC100,0.00,VWS V13.01,2013-05-11 11:20:00,
2013-05-11 07:25:00,45.1,42.3,29.98,NW,319,2.0,10.0,90,0.00,,OVC100,0.00,VWS V13.01,2013-05-11 11:25:00,
2013-05-11 07:30:00,45.1,42.6,29.98,NW,318,3.0,3.0,91,0.00,,OVC100,0.00,VWS V13.01,2013-05-11 11:30:00,
2013-05-11 07:35:00,45.2,42.5,29.98,NNW,328,4.0,7.0,90,0.00,,OVC100,0.00,VWS V13.01,2013-05-11 11:35:00,
2013-05-11 07:40:00,45.2,42.5,29.98,NW,317,3.0,8.0,90,0.00,,OVC100,0.00,VWS V13.01,2013-05-11 11:40:00,
2013-05-11 07:45:00,45.2,42.5,29.98,NW,322,5.0,9.0,90,0.00,,OVC100,0.00,VWS V13.01,2013-05-11 11:45:00,
2013-05-11 07:50:00,45.2,42.5,29.98,NW,312,7.0,9.0,90,0.00,,OVC100,0.00,VWS V13.01,2013-05-11 11:50:00,
2013-05-11 07:55:00,45.2,42.2,29.98,NW,314,4.0,9.0,89,0.00,,OVC100,0.00,VWS V13.01,2013-05-11 11:55:00,
2013-05-11 08:00:00,45.2,42.2,29.99,WNW,292,5.0,5.0,89,0.00,,OVC100,0.00,VWS V13.01,2013-05-11 12:00:00,
2013-05-11 08:05:00,45.0,42.0,29.98,NW,304,6.0,9.0,89,0.00,,OVC100,0.00,VWS V13.01,2013-05-11 12:05:00,
2013-05-11 08:10:00,45.0,42.0,29.99,WNW,300,7.0,11.0,89,0.00,,OVC100,0.00,VWS V13.01,2013-05-11 12:10:00,
2013-05-11 08:15:00,44.9,41.9,29.99,NW,319,5.0,11.0,89,0.00,,OVC100,0.00,VWS V13.01,2013-05-11 12:15:00,
2013-05-11 08:20:00,44.7,41.7,29.99,NNW,330,2.0,11.0,89,0.00,,OVC100,0.00,VWS V13.01,2013-05-11 12:20:00,
2013-05-11 08:25:00,44.7,41.7,29.99,NW,320,6.0,11.0,89,0.00,,OVC100,0.00,VWS V13.01,2013-05-11 12:25:00,
2013-05-11 08:30:00,44.7,41.7,29.99,NW,317,3.0,3.0,89,0.00,,OVC100,0.00,VWS V13.01,2013-05-11 12:30:00,
2013-05-11 08:35:00,44.8,41.5,29.99,NNW,341,4.0,6.0,88,0.00,,OVC100,0.00,VWS V13.01,2013-05-11 12:35:00,
2013-05-11 08:40:00,44.8,41.5,29.99,NNW,333,4.0,6.0,88,0.00,,OVC100,0.00,VWS V13.01,2013-05-11 12:40:00,
2013-05-11 08:45:00,45.0,42.0,29.99,NNW,335,1.0,6.0,89,0.00,,OVC100,0.00,VWS V13.01,2013-05-11 12:45:00,
2013-05-11 08:50:00,45.0,41.7,29.99,NW,323,4.0,6.0,88,0.00,,OVC100,0.00,VWS V13.01,2013-05-11 12:50:00,
2013-05-11 08:55:00,45.0,42.0,29.99,NW,323,1.0,6.0,89,0.00,,OVC100,0.00,VWS V13.01,2013-05-11 12:55:00,
2013-05-11 09:00:00,45.1,42.1,29.99,WNW,289,5.0,5.0,89,0.00,,OVC100,0.00,VWS V13.01,2013-05-11 13:00:00,
2013-05-11 09:05:00,45.2,42.2,29.99,WNW,298,2.0,9.0,89,0.00,,OVC100,0.00,VWS V13.01,2013-05-11 13:05:00,
2013-05-11 09:10:00,45.3,42.3,29.99,WNW,289,5.0,9.0,89,0.00,,OVC100,0.00,VWS V13.01,2013-05-11 13:10:00,
2013-05-11 09:15:00,45.2,42.2,29.99,WNW,296,9.0,10.0,89,0.00,,OVC100,0.00,VWS V13.01,2013-05-11 13:15:00,
2013-05-11 09:20:00,45.0,41.7,30.00,NW,304,3.0,10.0,88,0.00,,OVC100,0.00,VWS V13.01,2013-05-11 13:20:00,
2013-05-11 09:25:00,45.0,41.7,30.00,NW,304,5.0,10.0,88,0.00,,OVC100,0.00,VWS V13.01,2013-05-11 13:25:00,
2013-05-11 09:30:00,45.2,42.2,30.00,NW,304,2.0,10.0,89,0.00,,OVC100,0.00,VWS V13.01,2013-05-11 13:30:00,
2013-05-11 09:35:00,45.1,41.8,30.00,NW,304,5.0,5.0,88,0.00,,OVC100,0.00,VWS V13.01,2013-05-11 13:35:00,
2013-05-11 09:40:00,45.3,42.0,30.00,NW,304,6.0,7.0,88,0.00,,OVC100,0.00,VWS V13.01,2013-05-11 13:40:00,
2013-05-11 09:45:00,45.4,42.1,30.00,NW,304,4.0,7.0,88,0.00,,OVC100,0.00,VWS V13.01,2013-05-11 13:45:00,
2013-05-11 09:50:00,45.5,42.2,30.00,WNW,282,9.0,10.0,88,0.00,,OVC100,0.00,VWS V13.01,2013-05-11 13:50:00,
2013-05-11 09:55:00,45.5,42.2,30.00,West,277,6.0,10.0,88,0.00,,OVC100,0.00,VWS V13.01,2013-05-11 13:55:00,
2013-05-11 10:00:00,45.4,42.1,30.00,West,280,8.0,10.0,88,0.00,,OVC100,0.00,VWS V13.01,2013-05-11 14:00:00,
2013-05-11 10:05:00,45.6,42.5,30.00,WNW,303,5.0,10.0,89,0.00,,OVC010,0.00,VWS V13.01,2013-05-11 14:05:00,
2013-05-11 10:10:00,45.6,42.3,30.00,NW,304,4.0,10.0,88,0.00,,OVC010,0.00,VWS V13.01,2013-05-11 14:10:00,
2013-05-11 10:15:00,45.7,42.4,30.00,WNW,302,7.0,10.0,88,0.00,,OVC010,0.00,VWS V13.01,2013-05-11 14:15:00,
2013-05-11 10:20:00,45.8,42.5,30.00,WNW,296,5.0,10.0,88,0.00,,OVC010,0.00,VWS V13.01,2013-05-11 14:20:00,
2013-05-11 10:25:00,45.8,42.5,30.01,WNW,283,6.0,11.0,88,0.00,,OVC010,0.00,VWS V13.01,2013-05-11 14:25:00,
2013-05-11 10:30:00,45.9,42.8,30.00,West,280,7.0,11.0,89,0.00,,OVC010,0.00,VWS V13.01,2013-05-11 14:30:00,
2013-05-11 10:35:00,46.0,42.7,30.00,WNW,297,6.0,10.0,88,0.00,,OVC010,0.00,VWS V13.01,2013-05-11 14:35:00,
2013-05-11 10:40:00,46.0,42.7,30.00,WNW,290,6.0,11.0,88,0.00,,OVC010,0.00,VWS V13.01,2013-05-11 14:40:00,
2013-05-11 10:45:00,46.0,42.7,30.00,WNW,290,3.0,11.0,88,0.00,,OVC010,0.00,VWS V13.01,2013-05-11 14:45:00,
2013-05-11 10:50:00,46.2,43.1,30.00,WNW,288,11.0,12.0,89,0.00,,OVC010,0.00,VWS V13.01,2013-05-11 14:50:00,
2013-05-11 10:55:00,46.3,43.0,30.00,WNW,284,5.0,13.0,88,0.00,,OVC010,0.00,VWS V13.01,2013-05-11 14:55:00,
2013-05-11 11:00:00,46.4,43.0,30.00,WNW,286,6.0,9.0,88,0.00,,OVC010,0.00,VWS V13.01,2013-05-11 15:00:00,
2013-05-11 11:05:00,46.5,42.8,29.99,NW,304,6.0,12.0,87,0.00,,OVC010,0.00,VWS V13.01,2013-05-11 15:05:00,
2013-05-11 11:10:00,46.6,43.2,30.00,WNW,288,6.0,12.0,88,0.00,,OVC010,0.00,VWS V13.01,2013-05-11 15:10:00,
2013-05-11 11:15:00,46.7,43.3,30.00,WNW,287,8.0,12.0,88,0.00,,OVC010,0.00,VWS V13.01,2013-05-11 15:15:00,
2013-05-11 11:20:00,46.7,43.0,29.99,WNW,288,6.0,12.0,87,0.00,,OVC010,0.00,VWS V13.01,2013-05-11 15:20:00,
2013-05-11 11:25:00,47.1,43.7,29.99,West,268,13.0,15.0,88,0.00,,OVC010,0.00,VWS V13.01,2013-05-11 15:25:00,
2013-05-11 11:30:00,47.3,43.9,29.99,West,267,5.0,7.0,88,0.00,,OVC010,0.00,VWS V13.01,2013-05-11 15:30:00,
2013-05-11 11:35:00,47.5,43.8,29.99,West,265,3.0,11.0,87,0.00,,OVC010,0.00,VWS V13.01,2013-05-11 15:35:00,
2013-05-11 11:40:00,47.7,43.7,29.99,West,278,13.0,15.0,86,0.00,,OVC010,0.00,VWS V13.01,2013-05-11 15:40:00,
2013-05-11 11:45:00,47.8,44.1,29.99,West,259,10.0,15.0,87,0.00,,OVC010,0.00,VWS V13.01,2013-05-11 15:45:00,
2013-05-11 11:50:00,48.0,44.0,29.99,West,275,12.0,15.0,86,0.00,,OVC010,0.00,VWS V13.01,2013-05-11 15:50:00,
2013-05-11 11:55:00,48.6,44.3,29.99,West,261,7.0,15.0,85,0.00,,OVC010,0.00,VWS V13.01,2013-05-11 15:55:00,
2013-05-11 12:00:00,48.8,44.5,29.99,West,261,5.0,6.0,85,0.00,,OVC010,0.00,VWS V13.01,2013-05-11 16:00:00,
2013-05-11 12:05:00,49.0,44.7,29.99,West,281,12.0,15.0,85,0.00,,OVC010,0.00,VWS V13.01,2013-05-11 16:05:00,
2013-05-11 12:10:00,48.9,44.6,30.00,West,260,14.0,15.0,85,0.00,,OVC010,0.00,VWS V13.01,2013-05-11 16:10:00,
2013-05-11 12:15:00,48.5,44.2,30.00,West,269,11.0,16.0,85,0.00,,OVC010,0.00,VWS V13.01,2013-05-11 16:15:00,
2013-05-11 12:20:00,48.4,44.1,30.00,West,268,11.0,19.0,85,0.00,,OVC010,0.00,VWS V13.01,2013-05-11 16:20:00,
2013-05-11 12:25:00,48.5,44.2,30.00,West,275,14.0,19.0,85,0.00,,OVC010,0.00,VWS V13.01,2013-05-11 16:25:00,
2013-05-11 12:30:00,48.5,43.9,30.00,WNW,290,9.0,10.0,84,0.00,,OVC010,0.00,VWS V13.01,2013-05-11 16:30:00,
2013-05-11 12:35:00,48.8,44.5,30.00,West,270,10.0,10.0,85,0.00,,OVC010,0.00,VWS V13.01,2013-05-11 16:35:00,
2013-05-11 12:40:00,49.2,44.9,30.00,WSW,258,11.0,16.0,85,0.00,,OVC010,0.00,VWS V13.01,2013-05-11 16:40:00,
2013-05-11 12:45:00,49.0,44.7,29.99,WSW,257,7.0,16.0,85,0.00,,OVC010,0.00,VWS V13.01,2013-05-11 16:45:00,
2013-05-11 12:50:00,49.0,44.4,29.99,West,259,5.0,16.0,84,0.00,,OVC010,0.00,VWS V13.01,2013-05-11 16:50:00,
2013-05-11 12:55:00,49.3,44.7,29.98,WSW,257,7.0,16.0,84,0.00,,OVC010,0.00,VWS V13.01,2013-05-11 16:55:00,
2013-05-11 13:01:00,49.6,44.7,29.98,SW,233,6.0,10.0,83,0.00,,OVC010,0.00,VWS V13.01,2013-05-11 17:01:00,
2013-05-11 13:06:00,49.9,45.3,29.98,WSW,257,7.0,10.0,84,0.00,,OVC010,0.00,VWS V13.01,2013-05-11 17:06:00,
2013-05-11 13:11:00,50.3,45.7,29.98,WSW,250,7.0,16.0,84,0.00,,OVC010,0.00,VWS V13.01,2013-05-11 17:11:00,
2013-05-11 13:16:00,49.9,45.0,29.98,WSW,240,6.0,16.0,83,0.00,,OVC010,0.00,VWS V13.01,2013-05-11 17:16:00,
2013-05-11 13:21:00,50.1,45.2,29.98,WSW,257,13.0,16.0,83,0.00,,OVC010,0.00,VWS V13.01,2013-05-11 17:21:00,
2013-05-11 13:26:00,50.5,45.5,29.98,WSW,245,10.0,16.0,83,0.00,,OVC010,0.00,VWS V13.01,2013-05-11 17:26:00,
2013-05-11 13:31:00,50.5,45.2,29.98,SW,233,10.0,15.0,82,0.00,,OVC010,0.00,VWS V13.01,2013-05-11 17:31:00,
2013-05-11 13:36:00,50.6,45.6,29.97,WSW,256,4.0,15.0,83,0.00,,OVC010,0.00,VWS V13.01,2013-05-11 17:36:00,
2013-05-11 13:41:00,51.2,46.2,29.97,SW,232,9.0,15.0,83,0.00,,OVC010,0.00,VWS V13.01,2013-05-11 17:41:00,
2013-05-11 13:46:00,51.4,45.8,29.97,WSW,243,14.0,16.0,81,0.00,,OVC010,0.00,VWS V13.01,2013-05-11 17:46:00,
2013-05-11 13:51:00,51.1,46.1,29.97,WSW,256,12.0,17.0,83,0.00,,OVC010,0.00,VWS V13.01,2013-05-11 17:51:00,
2013-05-11 13:56:00,51.1,45.8,29.97,West,276,14.0,17.0,82,0.00,,OVC010,0.00,VWS V13.01,2013-05-11 17:56:00,
2013-05-11 14:01:00,51.3,45.7,29.97,WSW,250,11.0,11.0,81,0.00,,OVC011,0.00,VWS V13.01,2013-05-11 18:01:00,
2013-05-11 14:06:00,51.3,46.3,29.97,WSW,256,9.0,16.0,83,0.00,,OVC011,0.00,VWS V13.01,2013-05-11 18:06:00,
2013-05-11 14:11:00,51.5,46.2,29.97,WSW,257,7.0,16.0,82,0.00,,OVC011,0.00,VWS V13.01,2013-05-11 18:11:00,
2013-05-11 14:16:00,52.0,46.7,29.97,WSW,238,6.0,16.0,82,0.00,,OVC011,0.00,VWS V13.01,2013-05-11 18:16:00,
2013-05-11 14:21:00,52.8,47.1,29.97,West,261,12.0,16.0,81,0.00,,OVC011,0.00,VWS V13.01,2013-05-11 18:21:00,
2013-05-11 14:26:00,53.0,47.0,29.97,WSW,256,4.0,17.0,80,0.00,,OVC011,0.00,VWS V13.01,2013-05-11 18:26:00,
2013-05-11 14:31:00,52.9,46.6,29.97,WSW,252,5.0,14.0,79,0.00,,OVC011,0.00,VWS V13.01,2013-05-11 18:31:00,
2013-05-11 14:36:00,53.2,47.2,29.97,WSW,252,15.0,16.0,80,0.00,,OVC011,0.00,VWS V13.01,2013-05-11 18:36:00,
2013-05-11 14:41:00,53.7,47.7,29.97,West,260,15.0,19.0,80,0.00,,OVC011,0.00,VWS V13.01,2013-05-11 18:41:00,
2013-05-11 14:46:00,53.9,47.2,29.97,SW,227,12.0,19.0,78,0.00,,OVC011,0.00,VWS V13.01,2013-05-11 18:46:00,
2013-05-11 14:51:00,54.2,47.8,29.96,SW,218,4.0,19.0,79,0.00,,OVC011,0.00,VWS V13.01,2013-05-11 18:51:00,
2013-05-11 14:56:00,55.3,49.2,29.96,SW,223,1.0,19.0,80,0.00,,OVC011,0.00,VWS V13.01,2013-05-11 18:56:00,
2013-05-11 15:01:00,56.0,48.5,29.95,SSW,194,6.0,11.0,76,0.00,,OVC015,0.00,VWS V13.01,2013-05-11 19:01:00,
2013-05-11 15:06:00,56.8,49.7,29.94,SSW,198,7.0,12.0,77,0.00,,OVC015,0.00,VWS V13.01,2013-05-11 19:06:00,
2013-05-11 15:11:00,57.4,48.5,29.95,WSW,246,10.0,12.0,72,0.00,,OVC015,0.00,VWS V13.01,2013-05-11 19:11:00,
2013-05-11 15:16:00,56.9,48.7,29.95,SW,219,6.0,16.0,74,0.00,,OVC015,0.00,VWS V13.01,2013-05-11 19:16:00,
2013-05-11 15:21:00,57.0,49.2,29.95,WSW,246,15.0,17.0,75,0.00,,OVC015,0.00,VWS V13.01,2013-05-11 19:21:00,
2013-05-11 15:26:00,56.6,49.1,29.95,WSW,237,13.0,18.0,76,0.00,,OVC015,0.00,VWS V13.01,2013-05-11 19:26:00,
2013-05-11 15:31:00,56.3,48.1,29.95,WSW,250,11.0,12.0,74,0.00,,OVC015,0.00,VWS V13.01,2013-05-11 19:31:00,
2013-05-11 15:36:00,56.9,49.8,29.95,SW,223,4.0,14.0,77,0.00,,OVC015,0.00,VWS V13.01,2013-05-11 19:36:00,
2013-05-11 15:41:00,58.1,50.2,29.95,WSW,238,13.0,16.0,75,0.00,,OVC015,0.00,VWS V13.01,2013-05-11 19:41:00,
2013-05-11 15:46:00,57.9,49.3,29.94,WSW,239,4.0,18.0,73,0.00,,OVC015,0.00,VWS V13.01,2013-05-11 19:46:00,
2013-05-11 15:51:00,58.4,48.7,29.94,WSW,246,14.0,19.0,70,0.00,,OVC015,0.00,VWS V13.01,2013-05-11 19:51:00,
2013-05-11 15:56:00,57.7,49.5,29.94,WSW,254,20.0,20.0,74,0.00,,OVC015,0.00,VWS V13.01,2013-05-11 19:56:00,
2013-05-11 16:01:00,57.6,48.7,29.94,West,261,14.0,14.0,72,0.00,,BKN019,0.00,VWS V13.01,2013-05-11 20:01:00,
2013-05-11 16:06:00,57.1,49.3,29.94,SW,218,4.0,17.0,75,0.00,,BKN019,0.00,VWS V13.01,2013-05-11 20:06:00,
2013-05-11 16:11:00,57.0,48.8,29.94,SW,232,14.0,17.0,74,0.00,,BKN019,0.00,VWS V13.01,2013-05-11 20:11:00,
2013-05-11 16:16:00,56.8,49.0,29.94,SW,223,6.0,18.0,75,0.00,,BKN019,0.00,VWS V13.01,2013-05-11 20:16:00,
2013-05-11 16:21:00,56.7,48.9,29.94,WSW,250,22.0,22.0,75,0.00,,BKN019,0.00,VWS V13.01,2013-05-11 20:21:00,
2013-05-11 16:26:00,56.6,49.5,29.94,WSW,250,14.0,22.0,77,0.00,,BKN019,0.00,VWS V13.01,2013-05-11 20:26:00,
2013-05-11 16:31:00,56.5,49.4,29.94,WSW,252,17.0,19.0,77,0.00,,BKN019,0.00,VWS V13.01,2013-05-11 20:31:00,
2013-05-11 16:36:00,56.4,49.6,29.94,WSW,254,18.0,19.0,78,0.00,,BKN019,0.00,VWS V13.01,2013-05-11 20:36:00,
2013-05-11 16:41:00,57.0,49.9,29.94,WSW,250,15.0,19.0,77,0.00,,BKN019,0.00,VWS V13.01,2013-05-11 20:41:00,
2013-05-11 16:46:00,57.5,50.4,29.93,WSW,242,15.0,21.0,77,0.00,,SCT085,0.00,VWS V13.01,2013-05-11 20:46:00,
2013-05-11 16:51:00,57.7,50.5,29.93,WSW,241,15.0,21.0,77,0.00,,SCT085,0.00,VWS V13.01,2013-05-11 20:51:00,
2013-05-11 16:56:00,59.0,52.2,29.92,SW,225,7.0,21.0,78,0.00,,SCT085,0.00,VWS V13.01,2013-05-11 20:56:00,
2013-05-11 17:01:00,59.8,51.9,29.92,WSW,238,15.0,16.0,75,0.00,,SCT085,0.00,VWS V13.01,2013-05-11 21:01:00,
2013-05-11 17:06:00,59.0,50.7,29.92,WSW,246,19.0,21.0,74,0.00,,SCT085,0.00,VWS V13.01,2013-05-11 21:06:00,
2013-05-11 17:11:00,59.3,51.8,29.92,SW,219,13.0,21.0,76,0.00,,SCT085,0.00,VWS V13.01,2013-05-11 21:11:00,
2013-05-11 17:16:00,59.3,51.8,29.92,SW,223,4.0,21.0,76,0.00,,SCT085,0.00,VWS V13.01,2013-05-11 21:16:00,
2013-05-11 17:21:00,59.0,51.5,29.92,SW,229,14.0,21.0,76,0.00,,SCT085,0.00,VWS V13.01,2013-05-11 21:21:00,
2013-05-11 17:26:00,58.8,51.6,29.91,WSW,245,10.0,23.0,77,0.00,,SCT085,0.00,VWS V13.01,2013-05-11 21:26:00,
2013-05-11 17:31:00,59.0,51.5,29.91,WSW,239,9.0,15.0,76,0.00,,SCT085,0.00,VWS V13.01,2013-05-11 21:31:00,
2013-05-11 17:36:00,59.0,51.1,29.91,WSW,250,17.0,23.0,75,0.00,,SCT085,0.00,VWS V13.01,2013-05-11 21:36:00,
2013-05-11 17:41:00,59.0,51.1,29.91,WSW,242,12.0,23.0,75,0.00,,SCT085,0.00,VWS V13.01,2013-05-11 21:41:00,
2013-05-11 17:46:00,58.6,51.1,29.91,WSW,239,11.0,23.0,76,0.00,,SCT085,0.00,VWS V13.01,2013-05-11 21:46:00,
2013-05-11 17:51:00,58.5,51.3,29.91,WSW,240,15.0,23.0,77,0.00,,SCT085,0.00,VWS V13.01,2013-05-11 21:51:00,
2013-05-11 17:56:00,58.4,50.9,29.91,WSW,249,20.0,24.0,76,0.00,,SCT085,0.00,VWS V13.01,2013-05-11 21:56:00,
2013-05-11 18:01:00,58.5,51.3,29.91,SW,232,9.0,14.0,77,0.00,,SCT085,0.00,VWS V13.01,2013-05-11 22:01:00,
2013-05-11 18:06:00,58.7,51.5,29.91,SW,230,10.0,24.0,77,0.00,,SCT085,0.00,VWS V13.01,2013-05-11 22:06:00,
2013-05-11 18:11:00,58.6,51.4,29.91,WSW,252,19.0,24.0,77,0.00,,SCT085,0.00,VWS V13.01,2013-05-11 22:11:00,
2013-05-11 18:16:00,58.5,52.0,29.91,WSW,250,16.0,24.0,79,0.00,,SCT085,0.00,VWS V13.01,2013-05-11 22:16:00,
2013-05-11 18:21:00,58.7,51.9,29.91,WSW,242,18.0,24.0,78,0.00,,SCT085,0.00,VWS V13.01,2013-05-11 22:21:00,
2013-05-11 18:26:00,59.1,52.3,29.91,West,259,16.0,24.0,78,0.00,,SCT085,0.00,VWS V13.01,2013-05-11 22:26:00,
2013-05-11 18:31:00,57.3,47.6,29.94,North,5,22.0,27.0,70,0.00,,SCT085,0.00,VWS V13.01,2013-05-11 22:31:00,
2013-05-11 18:36:00,54.4,46.7,29.95,NNE,20,21.0,27.0,75,0.00,,SCT085,0.00,VWS V13.01,2013-05-11 22:36:00,
2013-05-11 18:41:00,53.1,45.4,29.95,North,11,5.0,27.0,75,0.00,,SCT085,0.00,VWS V13.01,2013-05-11 22:41:00,
2013-05-11 18:46:00,52.2,45.2,29.96,North,5,7.0,27.0,77,0.00,,SCT085,0.00,VWS V13.01,2013-05-11 22:46:00,
2013-05-11 18:51:00,52.0,45.4,29.95,NNW,333,18.0,27.0,78,0.00,,SCT085,0.00,VWS V13.01,2013-05-11 22:51:00,
2013-05-11 18:56:00,52.2,45.2,29.96,NNW,347,17.0,27.0,77,0.00,,SCT085,0.00,VWS V13.01,2013-05-11 22:56:00,
2013-05-11 19:01:00,52.4,45.8,29.96,North,350,10.0,13.0,78,0.00,,SCT085,0.00,VWS V13.01,2013-05-11 23:01:00,
2013-05-11 19:06:00,52.5,45.2,29.96,North,355,12.0,20.0,76,0.00,,SCT085,0.00,VWS V13.01,2013-05-11 23:06:00,
2013-05-11 19:11:00,52.1,45.1,29.97,NNW,347,11.0,23.0,77,0.00,,SCT085,0.00,VWS V13.01,2013-05-11 23:11:00,
2013-05-11 19:16:00,51.8,44.8,29.97,North,355,16.0,23.0,77,0.00,,SCT085,0.00,VWS V13.01,2013-05-11 23:16:00,
2013-05-11 19:21:00,51.5,44.2,29.98,NNE,31,13.0,23.0,76,0.00,,SCT085,0.00,VWS V13.01,2013-05-11 23:21:00,
2013-05-11 19:26:00,51.4,43.8,29.98,NNW,347,6.0,23.0,75,0.00,,SCT085,0.00,VWS V13.01,2013-05-11 23:26:00,
2013-05-11 19:31:00,51.4,43.4,29.98,North,360,9.0,11.0,74,0.00,,SCT085,0.00,VWS V13.01,2013-05-11 23:31:00,
2013-05-11 19:36:00,51.0,43.7,29.99,North,9,11.0,19.0,76,0.00,,SCT085,0.00,VWS V13.01,2013-05-11 23:36:00,
2013-05-11 19:41:00,50.8,43.2,29.99,North,360,11.0,19.0,75,0.00,,SCT085,0.00,VWS V13.01,2013-05-11 23:41:00,
2013-05-11 19:46:00,50.8,42.8,29.99,North,351,6.0,19.0,74,0.00,,SCT085,0.00,VWS V13.01,2013-05-11 23:46:00,
2013-05-11 19:51:00,50.9,42.9,29.99,North,360,7.0,19.0,74,0.00,,SCT085,0.00,VWS V13.01,2013-05-11 23:51:00,
2013-05-11 19:56:00,51.0,43.4,29.99,North,355,12.0,19.0,75,0.00,,SCT085,0.00,VWS V13.01,2013-05-11 23:56:00,
2013-05-11 20:01:00,51.0,42.7,30.00,North,5,5.0,10.0,73,0.00,,SCT085,0.00,VWS V13.01,2013-05-12 00:01:00,
2013-05-11 20:06:00,50.8,42.5,30.00,North,360,2.0,16.0,73,0.00,,SCT085,0.00,VWS V13.01,2013-05-12 00:06:00,
2013-05-11 20:11:00,50.5,42.2,30.00,North,349,5.0,16.0,73,0.00,,SCT085,0.00,VWS V13.01,2013-05-12 00:11:00,
2013-05-11 20:16:00,50.4,42.4,30.00,NNW,338,12.0,16.0,74,0.00,,SCT085,0.00,VWS V13.01,2013-05-12 00:16:00,
2013-05-11 20:21:00,50.1,41.8,30.00,North,5,11.0,17.0,73,0.00,,SCT085,0.00,VWS V13.01,2013-05-12 00:21:00,
2013-05-11 20:26:00,49.8,41.2,30.01,North,360,14.0,17.0,72,0.00,,SCT085,0.00,VWS V13.01,2013-05-12 00:26:00,
2013-05-11 20:31:00,49.6,41.0,30.01,North,5,9.0,9.0,72,0.00,,SCT085,0.00,VWS V13.01,2013-05-12 00:31:00,
2013-05-11 20:36:00,49.2,40.9,30.01,NNW,345,7.0,15.0,73,0.00,,SCT085,0.00,VWS V13.01,2013-05-12 00:36:00,
2013-05-11 20:41:00,48.9,40.6,30.01,North,360,4.0,15.0,73,0.00,,SCT085,0.00,VWS V13.01,2013-05-12 00:41:00,
2013-05-11 20:46:00,48.7,40.8,30.02,North,355,7.0,15.0,74,0.00,,SCT085,0.00,VWS V13.01,2013-05-12 00:46:00,
2013-05-11 20:51:00,48.4,40.5,30.02,North,5,5.0,15.0,74,0.00,,SCT085,0.00,VWS V13.01,2013-05-12 00:51:00,
2013-05-11 20:56:00,48.1,40.2,30.02,North,360,6.0,15.0,74,0.00,,SCT085,0.00,VWS V13.01,2013-05-12 00:56:00,
2013-05-11 21:00:00,47.8,39.9,30.03,North,351,3.0,6.0,74,0.00,,SCT085,0.00,VWS V13.01,2013-05-12 01:00:00,
2013-05-11 21:05:00,47.6,39.4,30.03,NNE,14,5.0,12.0,73,0.00,,SCT085,0.00,VWS V13.01,2013-05-12 01:05:00,
2013-05-11 21:10:00,47.5,38.9,30.03,NNW,345,8.0,15.0,72,0.00,,SCT085,0.00,VWS V13.01,2013-05-12 01:10:00,
2013-05-11 21:15:00,47.4,38.8,30.03,North,360,6.0,15.0,72,0.00,,SCT085,0.00,VWS V13.01,2013-05-12 01:15:00,
2013-05-11 21:20:00,47.3,39.1,30.03,North,360,4.0,15.0,73,0.00,,SCT085,0.00,VWS V13.01,2013-05-12 01:20:00,
2013-05-11 21:25:00,47.0,39.2,30.03,North,351,4.0,15.0,74,0.00,,SCT085,0.00,VWS V13.01,2013-05-12 01:25:00,
2013-05-11 21:30:00,46.7,39.2,30.04,North,350,4.0,4.0,75,0.00,,SCT085,0.00,VWS V13.01,2013-05-12 01:30:00,
2013-05-11 21:35:00,46.5,38.7,30.04,North,5,10.0,13.0,74,0.00,,SCT085,0.00,VWS V13.01,2013-05-12 01:35:00,
2013-05-11 21:40:00,46.5,38.3,30.04,North,5,10.0,13.0,73,0.00,,SCT085,0.00,VWS V13.01,2013-05-12 01:40:00,
2013-05-11 21:45:00,46.5,38.3,30.05,North,360,6.0,13.0,73,0.00,,SCT085,0.00,VWS V13.01,2013-05-12 01:45:00,
2013-05-11 21:50:00,46.3,38.5,30.05,NNW,344,2.0,13.0,74,0.00,,SCT085,0.00,VWS V13.01,2013-05-12 01:50:00,
2013-05-11 21:55:00,46.0,38.2,30.05,NNW,346,5.0,13.0,74,0.00,,SCT085,0.00,VWS V13.01,2013-05-12 01:55:00,
2013-05-11 22:00:00,45.8,38.0,30.05,North,355,3.0,4.0,74,0.00,,SCT085,0.00,VWS V13.01,2013-05-12 02:00:00,
2013-05-11 22:05:00,45.7,37.9,30.06,North,351,3.0,7.0,74,0.00,,SCT085,0.00,VWS V13.01,2013-05-12 02:05:00,
2013-05-11 22:10:00,45.6,38.2,30.06,NNW,348,5.0,7.0,75,0.00,,SCT085,0.00,VWS V13.01,2013-05-12 02:10:00,
2013-05-11 22:15:00,45.4,38.0,30.06,NNW,348,1.0,7.0,75,0.00,,SCT085,0.00,VWS V13.01,2013-05-12 02:15:00,
2013-05-11 22:20:00,45.3,37.9,30.06,NNW,348,2.0,7.0,75,0.00,,SCT085,0.00,VWS V13.01,2013-05-12 02:20:00,
2013-05-11 22:25:00,45.1,38.0,30.06,NNW,348,3.0,7.0,76,0.00,,SCT085,0.00,VWS V13.01,2013-05-12 02:25:00,
2013-05-11 22:30:00,45.0,37.9,30.07,NNW,348,1.0,2.0,76,0.00,,SCT085,0.00,VWS V13.01,2013-05-12 02:30:00,
2013-05-11 22:35:00,45.0,38.2,30.07,NNW,348,2.0,3.0,77,0.00,,SCT085,0.00,VWS V13.01,2013-05-12 02:35:00,
2013-05-11 22:40:00,44.9,38.5,30.07,NNW,348,1.0,3.0,78,0.00,,SCT085,0.00,VWS V13.01,2013-05-12 02:40:00,
2013-05-11 22:45:00,44.7,38.3,30.08,NNW,348,1.0,3.0,78,0.00,,SCT085,0.00,VWS V13.01,2013-05-12 02:45:00,
2013-05-11 22:50:00,44.5,38.1,30.08,NNW,348,1.0,3.0,78,0.00,,SCT085,0.00,VWS V13.01,2013-05-12 02:50:00,
2013-05-11 22:55:00,44.3,38.2,30.08,NNW,348,2.0,3.0,79,0.00,,SCT085,0.00,VWS V13.01,2013-05-12 02:55:00,
2013-05-11 23:00:00,44.2,38.1,30.08,NNW,348,0.0,1.0,79,0.00,,SCT085,0.00,VWS V13.01,2013-05-12 03:00:00,
2013-05-11 23:05:00,44.1,38.0,30.08,NNW,348,1.0,3.0,79,0.00,,SCT085,0.00,VWS V13.01,2013-05-12 03:05:00,
2013-05-11 23:10:00,43.9,37.8,30.08,NNW,348,0.0,3.0,79,0.00,,SCT085,0.00,VWS V13.01,2013-05-12 03:10:00,
2013-05-11 23:15:00,43.8,37.7,30.08,NNW,348,1.0,4.0,79,0.00,,SCT085,0.00,VWS V13.01,2013-05-12 03:15:00,
2013-05-11 23:20:00,43.7,37.3,30.08,NNW,348,2.0,4.0,78,0.00,,SCT085,0.00,VWS V13.01,2013-05-12 03:20:00,
2013-05-11 23:25:00,43.6,36.9,30.09,NNW,347,2.0,5.0,77,0.00,,SCT085,0.00,VWS V13.01,2013-05-12 03:25:00,
2013-05-11 23:30:00,43.6,36.5,30.09,NNW,327,2.0,3.0,76,0.00,,SCT085,0.00,VWS V13.01,2013-05-12 03:30:00,
2013-05-11 23:35:00,43.7,36.3,30.09,NNW,342,1.0,5.0,75,0.00,,SCT085,0.00,VWS V13.01,2013-05-12 03:35:00,
2013-05-11 23:40:00,43.7,36.0,30.09,NNW,342,1.0,5.0,74,0.00,,SCT085,0.00,VWS V13.01,2013-05-12 03:40:00,
2013-05-11 23:45:00,43.6,36.2,30.09,NNW,342,0.0,5.0,75,0.00,,SCT085,0.00,VWS V13.01,2013-05-12 03:45:00,
2013-05-11 23:50:00,43.5,36.1,30.08,NNW,342,1.0,5.0,75,0.00,,SCT085,0.00,VWS V13.01,2013-05-12 03:50:00,
2013-05-11 23:55:00,43.3,35.9,30.09,NNW,342,0.0,5.0,75,0.00,,SCT085,0.00,VWS V13.01,2013-05-12 03:55:00,